LEAB/ABC METAR and TAF weather

Enter ICAO airport designator
Station Type Date Time Source
LEAB METAR 2020/11/27 14:30 UTC NOAA

LEAB 271430Z VRB05KT 1300 R09/2000D R27/2000D +RA BKN004 OVC023 09/09 Q1006 BECMG NSW


Station Type Date Time Source
LEAB Decoded METAR 2020/11/27 14:30 UTC NOAA

Albacete / Los Llanos, Spain (LEAB) 38-57N 001-51W 704M
Nov 27, 2020 - 09:30 AM EST / 2020.11.27 1430 UTC
Wind: Variable at 6 MPH (5 KT):0
Visibility: less than 1 mile:0
Sky conditions: overcast
Weather: heavy rain
Temperature: 48 F (9 C)
Dew Point: 48 F (9 C)
Relative Humidity: 100%
Pressure (altimeter): 29.71 in. Hg (1006 hPa)
ob: LEAB 271430Z VRB05KT 1300 R09/2000D R27/2000D +RA BKN004 OVC023 09/09 Q1006 BECMG NSW
cycle: 14

Station Type Date Time Source
LEAB TAF 2020/11/27 12:47 UTC NOAA

TAF
AMD LEAB 271233Z 2712/2812 VRB05KT 9999 SCT030 BKN045 TX12/2715Z TN06/2806Z
TEMPO 2712/2719 10015G30KT 4000 RA SHRA BKN030TCU PROB40
TEMPO 2712/2714 3000 TS SHRA SCT014 SCT030CB PROB30
TEMPO 2719/2802 03010KT 4000 BR DZ BKN012 PROB40
TEMPO 2802/2808 34010KT 3000 BR DZ BKN005

Example: see airport list